Time;durP1;ratioP1;P1;durP2;ratioP2;P2;SDS_P1;SDS_P2;PMS_P1;PMS_P2;Temp;Humidity;BMP_temperature;BMP_pressure;BME280_temperature;BME280_humidity;BME280_pressure;Samples;Min_cycle;Max_cycle;Signal;HPM_P1;HPM_P2
2022/03/05 00:01:19;;;;;;;9.90;8.50;;;2.90;62.40;;;;;;5118588;28;20542;-58
2022/03/05 00:03:47;;;;;;;16.83;8.97;;;3.00;63.40;;;;;;5117670;28;20940;-58
2022/03/05 00:06:16;;;;;;;13.33;9.57;;;;;;;;;;5117615;28;20446;-59
2022/03/05 00:08:43;;;;;;;14.73;9.83;;;2.90;63.50;;;;;;5117975;28;20446;-58
2022/03/05 00:11:10;;;;;;;14.60;9.10;;;2.80;64.00;;;;;;5117580;28;20445;-59
2022/03/05 00:13:37;;;;;;;16.20;9.47;;;2.80;64.10;;;;;;5117590;28;20533;-58
2022/03/05 00:16:05;;;;;;;12.60;9.83;;;2.90;63.40;;;;;;5117764;28;20438;-58
2022/03/05 00:18:32;;;;;;;15.50;9.60;;;2.80;64.90;;;;;;5117479;28;20989;-59
2022/03/05 00:20:59;;;;;;;16.57;10.30;;;2.80;64.80;;;;;;5117759;28;20479;-59
2022/03/05 00:23:28;;;;;;;11.80;9.10;;;2.80;66.10;;;;;;5117673;28;20805;-57
2022/03/05 00:25:55;;;;;;;10.67;9.43;;;2.80;64.30;;;;;;5117046;28;21030;-59
2022/03/05 00:28:22;;;;;;;14.83;9.90;;;2.70;64.50;;;;;;5117097;28;20474;-58
2022/03/05 00:30:49;;;;;;;13.43;9.00;;;2.80;65.20;;;;;;5117545;28;20806;-58
2022/03/05 00:33:19;;;;;;;12.60;8.70;;;2.90;65.40;;;;;;5117500;28;20450;-58
2022/03/05 00:35:46;;;;;;;12.13;10.00;;;2.80;65.40;;;;;;5117614;28;20534;-59
2022/03/05 00:38:13;;;;;;;12.50;8.30;;;2.70;66.20;;;;;;5117378;28;20442;-58
2022/03/05 00:40:42;;;;;;;13.77;8.47;;;2.60;66.20;;;;;;5117372;28;20806;-58
2022/03/05 00:43:09;;;;;;;12.17;8.57;;;2.70;66.30;;;;;;5116987;28;20450;-58
2022/03/05 00:45:37;;;;;;;15.60;9.73;;;2.50;66.20;;;;;;5116875;28;20492;-58
2022/03/05 00:48:05;;;;;;;14.13;9.27;;;2.50;67.10;;;;;;5116789;28;20496;-58
2022/03/05 00:50:33;;;;;;;12.37;10.47;;;2.40;67.40;;;;;;5117187;28;20447;-58
2022/03/05 00:53:00;;;;;;;13.00;9.23;;;2.40;67.40;;;;;;5117139;28;20492;-58
2022/03/05 00:55:27;;;;;;;18.23;9.90;;;2.40;67.90;;;;;;5117021;28;20446;-58
2022/03/05 00:57:56;;;;;;;10.97;8.97;;;2.40;68.00;;;;;;5116630;28;20469;-58
2022/03/05 01:00:23;;;;;;;14.87;9.87;;;2.50;68.30;;;;;;5116993;28;20442;-58
2022/03/05 01:02:50;;;;;;;19.13;10.00;;;2.50;68.60;;;;;;5116943;28;20442;-58
2022/03/05 01:05:17;;;;;;;13.23;9.30;;;2.50;68.60;;;;;;5116117;28;20478;-58
2022/03/05 01:07:44;;;;;;;13.37;10.33;;;2.30;67.80;;;;;;5116779;28;20473;-58
2022/03/05 01:10:11;;;;;;;16.10;9.80;;;2.20;68.20;;;;;;5116471;28;20438;-58
2022/03/05 01:12:38;;;;;;;13.33;9.63;;;2.20;69.10;;;;;;5116737;28;20446;-58
2022/03/05 01:15:09;;;;;;;14.30;10.00;;;2.20;69.40;;;;;;5116686;28;20804;-58
2022/03/05 01:17:36;;;;;;;14.10;8.97;;;2.10;69.60;;;;;;5116632;28;20466;-58
2022/03/05 01:20:04;;;;;;;12.53;8.80;;;2.00;70.00;;;;;;5116580;28;20447;-59
2022/03/05 01:22:31;;;;;;;15.37;9.13;;;2.00;70.40;;;;;;5116538;28;20794;-59
2022/03/05 01:24:58;;;;;;;12.10;9.33;;;2.10;71.00;;;;;;5116405;28;20482;-59
2022/03/05 01:27:28;;;;;;;14.20;8.97;;;2.20;71.30;;;;;;5116063;28;20481;-59
2022/03/05 01:29:55;;;;;;;9.93;8.70;;;2.20;71.50;;;;;;5116366;28;20447;-59
2022/03/05 01:32:24;;;;;;;10.90;8.63;;;2.10;70.80;;;;;;5116356;28;20450;-59
2022/03/05 01:34:51;;;;;;;11.50;8.90;;;2.20;71.50;;;;;;5116329;28;20443;-58
2022/03/05 01:37:18;;;;;;;13.27;8.60;;;2.10;71.90;;;;;;5115881;28;20470;-58
2022/03/05 01:39:45;;;;;;;15.20;8.73;;;2.10;72.00;;;;;;5115986;28;20922;-59
2022/03/05 01:42:12;;;;;;;11.73;9.53;;;2.00;72.80;;;;;;5116148;28;20453;-58
2022/03/05 01:44:40;;;;;;;14.03;9.20;;;2.10;72.00;;;;;;5116000;28;20489;-58
2022/03/05 01:47:07;;;;;;;9.67;8.07;;;2.00;73.60;;;;;;5115957;28;20463;-58
2022/03/05 01:49:35;;;;;;;14.67;9.67;;;2.10;73.20;;;;;;5116051;28;20469;-58
2022/03/05 01:52:03;;;;;;;13.03;9.67;;;2.00;72.70;;;;;;5115677;28;20959;-58
2022/03/05 01:54:30;;;;;;;14.83;9.30;;;1.90;73.20;;;;;;5115710;28;20454;-59
2022/03/05 01:56:58;;;;;;;13.60;8.40;;;1.80;73.50;;;;;;5115782;28;20541;-58
2022/03/05 01:59:25;;;;;;;11.37;9.77;;;1.80;73.80;;;;;;5115822;28;20442;-58
2022/03/05 02:01:53;;;;;;;12.90;9.40;;;1.80;74.40;;;;;;5115435;28;20458;-58
2022/03/05 02:04:20;;;;;;;14.50;8.77;;;1.90;73.60;;;;;;5115456;28;20435;-58
2022/03/05 02:06:48;;;;;;;12.93;9.00;;;;;;;;;;5115539;28;20866;-58
2022/03/05 02:09:16;;;;;;;11.80;8.80;;;1.70;73.60;;;;;;5115669;28;20453;-58
2022/03/05 02:11:43;;;;;;;13.80;8.10;;;1.70;74.90;;;;;;5115647;28;20438;-58
2022/03/05 02:14:11;;;;;;;13.83;8.70;;;1.80;74.90;;;;;;5116124;28;20451;-58
2022/03/05 02:16:38;;;;;;;16.93;10.40;;;1.80;74.90;;;;;;5114533;28;20490;-58
2022/03/05 02:19:05;;;;;;;19.47;9.20;;;1.70;75.40;;;;;;5114727;28;20925;-58
2022/03/05 02:21:35;;;;;;;13.17;8.43;;;1.60;75.70;;;;;;5115378;28;20533;-58
2022/03/05 02:24:04;;;;;;;13.60;9.27;;;1.60;75.30;;;;;;5115312;28;20499;-59
2022/03/05 02:26:31;;;;;;;12.00;7.40;;;1.70;75.60;;;;;;5114916;28;20482;-58
2022/03/05 02:28:58;;;;;;;13.40;8.60;;;1.70;76.20;;;;;;5114985;28;20430;-59
2022/03/05 02:31:25;;;;;;;11.53;8.47;;;1.70;76.10;;;;;;5115174;28;20442;-59
2022/03/05 02:33:53;;;;;;;10.57;8.67;;;1.70;76.50;;;;;;5115152;28;20449;-59
2022/03/05 02:36:21;;;;;;;15.77;9.00;;;;;;;;;;5114718;28;20469;-58
2022/03/05 02:38:50;;;;;;;13.97;9.77;;;1.60;75.70;;;;;;5115036;28;20542;-58
2022/03/05 02:41:18;;;;;;;10.43;8.73;;;1.70;76.50;;;;;;5114976;28;20450;-57
2022/03/05 02:43:45;;;;;;;12.00;8.43;;;1.70;76.60;;;;;;5114994;28;20503;-57
2022/03/05 02:46:12;;;;;;;10.10;8.87;;;;;;;;;;5114806;28;20880;-58
2022/03/05 02:48:40;;;;;;;13.53;7.97;;;1.40;76.20;;;;;;5114559;28;20443;-58
2022/03/05 02:51:07;;;;;;;9.80;8.30;;;1.40;77.80;;;;;;5115357;28;20454;-58
2022/03/05 02:53:35;;;;;;;14.47;8.33;;;1.50;78.30;;;;;;5114534;28;20952;-58
2022/03/05 02:56:05;;;;;;;12.50;8.87;;;1.60;77.40;;;;;;5114327;28;20446;-58
2022/03/05 02:58:32;;;;;;;12.43;8.30;;;1.60;77.90;;;;;;5114407;28;20810;-58
2022/03/05 03:00:59;;;;;;;12.67;9.30;;;1.60;78.10;;;;;;5114689;28;20481;-59
2022/03/05 03:03:26;;;;;;;10.70;9.60;;;1.60;77.50;;;;;;5114342;28;20453;-58
2022/03/05 03:05:53;;;;;;;13.60;9.77;;;1.50;78.00;;;;;;5114497;28;20831;-58
2022/03/05 03:08:20;;;;;;;12.30;8.83;;;1.40;78.30;;;;;;5114254;28;20482;-58
2022/03/05 03:10:48;;;;;;;11.97;9.00;;;1.20;78.40;;;;;;5114576;28;20453;-58
2022/03/05 03:13:16;;;;;;;14.17;9.50;;;1.20;79.50;;;;;;5114467;28;20534;-58
2022/03/05 03:15:43;;;;;;;13.70;9.67;;;1.30;79.80;;;;;;5114157;28;20954;-58
2022/03/05 03:18:10;;;;;;;11.13;9.00;;;1.40;80.00;;;;;;5114358;28;20473;-58
2022/03/05 03:20:38;;;;;;;12.87;9.27;;;1.40;79.70;;;;;;5114077;28;20485;-58
2022/03/05 03:23:05;;;;;;;13.83;8.00;;;1.40;80.20;;;;;;5114041;28;20534;-59
2022/03/05 03:25:32;;;;;;;12.93;9.73;;;1.40;80.60;;;;;;5114523;28;20481;-58
2022/03/05 03:27:59;;;;;;;12.83;9.33;;;1.40;80.50;;;;;;5113548;28;20482;-59
2022/03/05 03:30:28;;;;;;;13.27;8.83;;;1.40;80.00;;;;;;5114041;28;20815;-58
2022/03/05 03:32:55;;;;;;;13.60;10.37;;;1.30;80.50;;;;;;5114811;28;20442;-58
2022/03/05 03:35:22;;;;;;;13.40;9.83;;;1.30;80.90;;;;;;5113912;28;21007;-57
2022/03/05 03:37:50;;;;;;;12.73;9.47;;;1.30;81.00;;;;;;5114150;28;20470;-58
2022/03/05 03:40:18;;;;;;;12.40;8.90;;;1.10;80.70;;;;;;5114190;28;20510;-58
2022/03/05 03:42:47;;;;;;;14.50;9.27;;;1.20;81.10;;;;;;5114164;28;20526;-59
2022/03/05 03:45:15;;;;;;;18.23;9.90;;;1.20;81.80;;;;;;5114041;28;20442;-59
2022/03/05 03:47:45;;;;;;;12.90;9.10;;;0.90;80.80;;;;;;5114035;28;20518;-59
2022/03/05 03:50:14;;;;;;;8.90;8.00;;;;;;;;;;5114111;28;20433;-58
2022/03/05 03:52:42;;;;;;;13.37;10.00;;;1.00;82.10;;;;;;5114590;28;20450;-58
2022/03/05 03:55:11;;;;;;;13.57;9.67;;;1.10;82.60;;;;;;5114048;28;20456;-59
2022/03/05 03:57:39;;;;;;;13.00;8.20;;;1.10;82.10;;;;;;5113928;28;20527;-58
2022/03/05 04:00:08;;;;;;;13.80;8.77;;;1.10;82.60;;;;;;5114007;28;20443;-59
2022/03/05 04:02:35;;;;;;;12.13;8.57;;;1.10;82.70;;;;;;5113979;28;20497;-58
2022/03/05 04:05:04;;;;;;;13.23;9.40;;;0.90;82.60;;;;;;5113907;28;20446;-59
2022/03/05 04:10:16;;;;;;;12.27;8.90;;;1.00;83.70;;;;;;5113796;28;20410;-58
2022/03/05 04:12:43;;;;;;;13.40;8.80;;;1.00;84.00;;;;;;5113944;28;20545;-58
2022/03/05 04:15:11;;;;;;;15.90;9.47;;;1.00;84.00;;;;;;5113858;28;20465;-58
2022/03/05 04:17:39;;;;;;;12.47;9.40;;;0.90;84.20;;;;;;5113788;28;20467;-58
2022/03/05 04:20:09;;;;;;;13.33;9.70;;;1.00;84.90;;;;;;5113584;28;20423;-57
2022/03/05 04:22:36;;;;;;;12.10;9.00;;;0.90;84.70;;;;;;5113802;28;20438;-58
2022/03/05 04:25:04;;;;;;;17.30;9.43;;;0.90;84.70;;;;;;5113901;28;20446;-58
2022/03/05 04:27:31;;;;;;;11.67;8.87;;;0.90;84.90;;;;;;5113139;28;20479;-58
2022/03/05 04:29:58;;;;;;;13.43;8.97;;;0.80;85.40;;;;;;5113727;28;20461;-59
2022/03/05 04:32:25;;;;;;;11.90;8.70;;;0.90;85.80;;;;;;5113750;28;20454;-58
2022/03/05 04:34:52;;;;;;;19.30;10.90;;;0.80;85.60;;;;;;5113386;28;20448;-59
2022/03/05 04:37:21;;;;;;;12.23;8.50;;;0.80;86.00;;;;;;5113588;28;20489;-59
2022/03/05 04:39:48;;;;;;;11.27;8.53;;;0.70;85.80;;;;;;5113333;28;20475;-59
2022/03/05 04:42:15;;;;;;;12.27;8.83;;;0.80;86.70;;;;;;5116747;28;20450;-58
2022/03/05 04:44:42;;;;;;;14.87;8.90;;;0.90;86.50;;;;;;5117309;28;20448;-59
2022/03/05 04:47:09;;;;;;;16.13;8.47;;;0.70;86.50;;;;;;5117128;28;20486;-59
2022/03/05 04:49:37;;;;;;;12.03;8.93;;;0.70;87.00;;;;;;5117008;28;20438;-58
2022/03/05 04:52:04;;;;;;;14.43;9.80;;;0.70;87.20;;;;;;5116874;28;20542;-58
2022/03/05 04:54:33;;;;;;;17.53;10.67;;;0.80;87.40;;;;;;5117109;28;20454;-58
2022/03/05 04:57:00;;;;;;;13.47;10.27;;;0.80;86.90;;;;;;5116655;28;20458;-57
2022/03/05 04:59:27;;;;;;;13.20;9.50;;;0.80;86.40;;;;;;5116995;28;20442;-59
2022/03/05 05:01:56;;;;;;;10.90;8.60;;;0.70;87.00;;;;;;5116946;28;20480;-59
2022/03/05 05:04:23;;;;;;;15.20;9.57;;;0.80;87.40;;;;;;5116607;28;20447;-58
2022/03/05 05:06:53;;;;;;;9.40;8.43;;;0.80;87.40;;;;;;5116353;28;20489;-59
2022/03/05 05:09:21;;;;;;;10.97;8.70;;;0.80;87.70;;;;;;5116860;28;20846;-59
2022/03/05 05:11:49;;;;;;;16.20;9.37;;;0.80;87.70;;;;;;5116773;28;20442;-57
2022/03/05 05:14:16;;;;;;;13.30;8.80;;;0.70;88.10;;;;;;5116753;28;20876;-59
2022/03/05 05:16:44;;;;;;;15.87;9.30;;;0.70;88.10;;;;;;5116617;28;20470;-58
2022/03/05 05:19:27;;;;;;;12.40;10.13;;;0.80;88.10;;;;;;5116619;28;20806;-57
2022/03/05 05:21:56;;;;;;;14.50;9.30;;;0.80;87.80;;;;;;5116673;28;20462;-59
2022/03/05 05:24:30;;;;;;;15.10;10.17;;;0.80;88.10;;;;;;5116425;28;20446;-59
2022/03/05 05:26:59;;;;;;;14.63;9.37;;;;;;;;;;5115855;28;20518;-58
2022/03/05 05:29:26;;;;;;;10.53;8.80;;;0.60;88.00;;;;;;5116522;28;20898;-58
2022/03/05 05:31:55;;;;;;;13.87;9.27;;;0.50;89.20;;;;;;5116731;28;20518;-59
2022/03/05 05:34:23;;;;;;;12.90;8.33;;;0.50;99.90;;;;;;5116349;28;20522;-59
2022/03/05 05:36:51;;;;;;;10.77;8.70;;;0.60;92.30;;;;;;5116224;28;20854;-58
2022/03/05 05:39:22;;;;;;;11.90;9.70;;;0.70;91.80;;;;;;5115932;28;20976;-59
2022/03/05 05:41:49;;;;;;;14.70;9.83;;;0.60;91.20;;;;;;5115805;28;20442;-59
2022/03/05 05:44:18;;;;;;;13.20;9.50;;;0.50;92.30;;;;;;5115833;28;20454;-58
2022/03/05 05:46:45;;;;;;;12.10;9.63;;;0.60;94.00;;;;;;5115879;28;20486;-58
2022/03/05 05:49:12;;;;;;;12.03;8.40;;;0.50;91.50;;;;;;5116022;28;20533;-57
2022/03/05 05:51:39;;;;;;;14.37;8.77;;;0.50;91.00;;;;;;5115836;28;20537;-58
2022/03/05 05:54:07;;;;;;;13.80;9.40;;;0.50;90.60;;;;;;5115544;28;20446;-58
2022/03/05 05:56:35;;;;;;;11.80;9.20;;;0.50;90.70;;;;;;5115553;28;21028;-57
2022/03/05 05:59:02;;;;;;;12.97;9.40;;;0.50;90.90;;;;;;5115919;28;20447;-58
2022/03/05 06:01:31;;;;;;;15.23;10.00;;;0.60;91.00;;;;;;5115861;28;20443;-58
2022/03/05 06:03:58;;;;;;;16.30;10.63;;;0.50;91.40;;;;;;5115465;28;20443;-58
2022/03/05 06:06:25;;;;;;;9.50;8.33;;;0.50;91.90;;;;;;5115251;28;20565;-58
2022/03/05 06:08:52;;;;;;;13.13;9.40;;;0.60;90.70;;;;;;5115660;28;20451;-58
2022/03/05 06:11:19;;;;;;;13.73;8.83;;;0.60;91.20;;;;;;5115295;28;20478;-59
2022/03/05 06:13:47;;;;;;;15.77;10.47;;;0.60;91.10;;;;;;5115545;28;20470;-58
2022/03/05 06:16:14;;;;;;;13.37;10.23;;;0.60;90.90;;;;;;5115452;28;20466;-59
2022/03/05 06:18:43;;;;;;;10.30;9.20;;;0.50;90.70;;;;;;5115473;28;20541;-58
2022/03/05 06:21:10;;;;;;;13.40;9.77;;;0.60;90.90;;;;;;5115092;28;20925;-58
2022/03/05 06:23:38;;;;;;;15.33;10.17;;;0.60;91.00;;;;;;5115331;28;20448;-58
2022/03/05 06:26:05;;;;;;;12.37;9.33;;;0.60;90.70;;;;;;5115355;28;20450;-58
2022/03/05 06:28:33;;;;;;;12.93;10.43;;;0.50;90.30;;;;;;5114806;28;20478;-59
2022/03/05 06:31:00;;;;;;;11.80;8.63;;;;;;;;;;5115184;28;20469;-59
2022/03/05 06:33:27;;;;;;;17.57;11.23;;;0.60;90.50;;;;;;5115134;28;20451;-58
2022/03/05 06:35:56;;;;;;;14.77;11.50;;;0.70;90.80;;;;;;5115028;28;20447;-58
2022/03/05 06:38:23;;;;;;;11.93;9.60;;;0.70;90.80;;;;;;5114760;28;20500;-58
2022/03/05 06:40:51;;;;;;;12.50;10.23;;;0.70;90.90;;;;;;5114721;28;20884;-58
2022/03/05 06:43:18;;;;;;;14.23;10.83;;;0.80;91.00;;;;;;5114965;28;20442;-58
2022/03/05 06:45:46;;;;;;;13.90;10.17;;;0.70;90.80;;;;;;5114918;28;20451;-58
2022/03/05 06:48:13;;;;;;;12.53;9.87;;;0.80;90.60;;;;;;5114796;28;20479;-56
2022/03/05 06:50:40;;;;;;;14.33;9.80;;;0.90;90.60;;;;;;5114862;28;20802;-57
2022/03/05 06:53:09;;;;;;;14.60;10.57;;;0.90;89.90;;;;;;5114819;28;20443;-57
2022/03/05 06:55:36;;;;;;;16.97;11.10;;;0.90;90.10;;;;;;5114699;28;20809;-57
2022/03/05 06:58:03;;;;;;;14.50;10.87;;;1.00;90.20;;;;;;5114349;28;20468;-57
2022/03/05 07:00:30;;;;;;;18.03;11.83;;;1.00;89.80;;;;;;5114662;28;20474;-57
2022/03/05 07:02:58;;;;;;;14.80;10.83;;;1.00;89.50;;;;;;5114052;28;20453;-56
2022/03/05 07:05:25;;;;;;;19.33;12.40;;;1.10;89.20;;;;;;5115107;28;20952;-57
2022/03/05 07:07:52;;;;;;;14.23;10.40;;;1.10;89.20;;;;;;5114125;28;20479;-57
2022/03/05 07:10:21;;;;;;;13.40;10.97;;;1.10;89.40;;;;;;5114233;28;20447;-57
2022/03/05 07:12:48;;;;;;;18.80;11.70;;;1.20;89.50;;;;;;5114463;28;20538;-57
2022/03/05 07:15:15;;;;;;;12.77;10.57;;;1.20;90.00;;;;;;5114108;28;20975;-57
2022/03/05 07:17:48;;;;;;;17.50;11.17;;;1.20;89.50;;;;;;5114041;28;20467;-56
2022/03/05 07:20:15;;;;;;;17.10;11.40;;;1.20;89.10;;;;;;5114067;28;20792;-56
2022/03/05 07:22:43;;;;;;;18.00;12.07;;;1.30;89.90;;;;;;5114293;28;20458;-57
2022/03/05 07:25:11;;;;;;;17.60;11.20;;;1.30;89.00;;;;;;5114210;28;20442;-57
2022/03/05 07:27:40;;;;;;;21.83;11.07;;;1.40;89.10;;;;;;5113730;28;20486;-57
2022/03/05 07:30:09;;;;;;;14.87;11.87;;;1.40;88.80;;;;;;5113955;28;20542;-57
2022/03/05 07:32:36;;;;;;;19.17;13.20;;;1.50;88.70;;;;;;5114225;28;20447;-57
2022/03/05 07:35:04;;;;;;;22.60;13.57;;;1.50;88.70;;;;;;5113842;28;20460;-57
2022/03/05 07:37:32;;;;;;;17.07;11.77;;;1.60;88.30;;;;;;5113879;28;20856;-57
2022/03/05 07:39:59;;;;;;;15.87;11.70;;;1.50;87.40;;;;;;5113796;28;20858;-57
2022/03/05 07:42:27;;;;;;;19.40;12.50;;;1.60;88.20;;;;;;5113799;28;20450;-57
2022/03/05 07:44:55;;;;;;;17.87;11.00;;;1.70;88.30;;;;;;5113729;28;20971;-57
2022/03/05 07:47:23;;;;;;;17.47;12.40;;;1.70;88.00;;;;;;5113839;28;20482;-57
2022/03/05 07:49:50;;;;;;;20.77;12.73;;;1.80;88.30;;;;;;5114777;28;20442;-57
2022/03/05 07:52:17;;;;;;;17.60;12.57;;;1.90;88.50;;;;;;5114045;28;20445;-57
2022/03/05 07:54:44;;;;;;;19.17;12.50;;;1.90;87.30;;;;;;5113696;28;20455;-57
2022/03/05 07:57:12;;;;;;;25.43;13.80;;;2.00;87.10;;;;;;5113953;28;20553;-57
2022/03/05 07:59:39;;;;;;;17.10;11.80;;;2.10;88.00;;;;;;5113634;28;20453;-59
2022/03/05 08:02:08;;;;;;;21.83;13.00;;;2.20;87.00;;;;;;5113924;28;20443;-57
2022/03/05 08:04:35;;;;;;;22.37;13.23;;;2.30;86.10;;;;;;5113634;28;20446;-57
2022/03/05 08:07:04;;;;;;;16.70;12.10;;;2.40;85.40;;;;;;5113700;28;20510;-57
2022/03/05 08:09:32;;;;;;;19.30;13.37;;;2.50;85.20;;;;;;5113545;28;20450;-57
2022/03/05 08:11:59;;;;;;;17.50;13.13;;;2.60;85.60;;;;;;5113774;28;20443;-57
2022/03/05 08:14:26;;;;;;;18.87;12.47;;;2.70;86.30;;;;;;5113762;28;20438;-57
2022/03/05 08:16:53;;;;;;;19.00;12.63;;;2.80;85.00;;;;;;5116851;28;20465;-57
2022/03/05 08:19:21;;;;;;;19.23;13.37;;;2.90;85.10;;;;;;5117753;28;20879;-57
2022/03/05 08:21:48;;;;;;;19.53;13.40;;;2.90;84.80;;;;;;5117059;28;20446;-57
2022/03/05 08:24:16;;;;;;;24.20;13.40;;;2.90;84.80;;;;;;5117245;28;20975;-57
2022/03/05 08:26:43;;;;;;;21.47;13.60;;;2.80;84.10;;;;;;5116869;28;20503;-57
2022/03/05 08:29:11;;;;;;;18.73;12.50;;;2.80;84.80;;;;;;5117648;28;20616;-57
2022/03/05 08:31:38;;;;;;;19.67;12.83;;;2.90;85.20;;;;;;5117494;28;20805;-57
2022/03/05 08:34:05;;;;;;;18.70;14.07;;;2.90;85.20;;;;;;5116988;28;20454;-57
2022/03/05 08:36:33;;;;;;;22.70;13.30;;;3.00;85.10;;;;;;5117042;28;20473;-57
2022/03/05 08:39:01;;;;;;;19.60;12.77;;;3.00;85.00;;;;;;5117341;28;20446;-57
2022/03/05 08:41:28;;;;;;;22.10;14.43;;;3.00;84.70;;;;;;5117177;28;20453;-57
2022/03/05 08:43:55;;;;;;;22.23;13.37;;;3.10;84.90;;;;;;5117349;28;20468;-57
2022/03/05 08:46:22;;;;;;;18.70;14.20;;;3.10;83.80;;;;;;5117054;28;20469;-57
2022/03/05 08:48:49;;;;;;;24.77;14.37;;;3.10;84.20;;;;;;5117010;28;20527;-57
2022/03/05 08:51:16;;;;;;;18.37;13.90;;;3.20;84.10;;;;;;5116718;28;20453;-57
2022/03/05 08:53:45;;;;;;;18.03;12.90;;;3.30;83.60;;;;;;5116729;28;20917;-57
2022/03/05 08:56:12;;;;;;;20.80;13.47;;;3.40;83.90;;;;;;5117113;28;20489;-58
2022/03/05 08:58:39;;;;;;;20.80;15.07;;;3.50;83.70;;;;;;5116655;28;20474;-57
2022/03/05 09:01:06;;;;;;;17.43;13.43;;;3.60;83.20;;;;;;5116960;28;20457;-57
2022/03/05 09:03:34;;;;;;;17.37;12.70;;;3.60;82.30;;;;;;5116527;28;20540;-58
2022/03/05 09:06:01;;;;;;;23.93;14.10;;;3.70;82.20;;;;;;5116632;28;20463;-57
2022/03/05 09:08:28;;;;;;;21.90;15.50;;;3.80;82.70;;;;;;5116638;28;20478;-57
2022/03/05 09:10:57;;;;;;;19.23;14.20;;;3.60;82.00;;;;;;5116721;28;20847;-57
2022/03/05 09:13:24;;;;;;;17.13;13.33;;;3.80;81.40;;;;;;5116653;28;20810;-58
2022/03/05 09:15:51;;;;;;;21.20;14.27;;;3.90;81.60;;;;;;5116584;28;20797;-57
2022/03/05 09:18:18;;;;;;;18.10;13.00;;;4.00;80.90;;;;;;5116474;28;20495;-57
2022/03/05 09:20:47;;;;;;;17.87;12.90;;;4.10;79.60;;;;;;5116065;28;20965;-57
2022/03/05 09:23:14;;;;;;;19.63;14.10;;;4.00;80.80;;;;;;5116518;28;20801;-57
2022/03/05 09:25:42;;;;;;;20.83;15.37;;;4.00;81.50;;;;;;5116559;28;20462;-57
2022/03/05 09:28:10;;;;;;;25.00;12.90;;;4.10;81.00;;;;;;5115565;28;20490;-58
2022/03/05 09:30:38;;;;;;;19.07;13.00;;;4.20;79.80;;;;;;5107921;28;20470;-57
2022/03/05 09:33:05;;;;;;;18.90;12.13;;;4.30;79.70;;;;;;5103921;28;20469;-57
2022/03/05 09:35:32;;;;;;;19.90;13.40;;;4.20;79.20;;;;;;5115354;28;20458;-58
2022/03/05 09:38:00;;;;;;;20.80;12.27;;;4.50;79.50;;;;;;5115779;28;20803;-57
2022/03/05 09:40:27;;;;;;;18.33;11.70;;;4.70;78.80;;;;;;5114316;28;20799;-57
2022/03/05 09:42:54;;;;;;;14.77;11.03;;;4.80;76.30;;;;;;5115653;28;20885;-57
2022/03/05 09:45:23;;;;;;;16.67;12.00;;;4.60;76.20;;;;;;5115960;28;20461;-58
2022/03/05 09:47:50;;;;;;;14.30;10.77;;;4.70;76.90;;;;;;5115042;28;21067;-58
2022/03/05 09:50:17;;;;;;;17.10;11.10;;;4.80;73.70;;;;;;5115652;28;20442;-57
2022/03/05 09:52:44;;;;;;;14.30;9.83;;;4.70;74.70;;;;;;5116822;28;20777;-57
2022/03/05 09:55:11;;;;;;;14.30;9.30;;;4.90;71.00;;;;;;5115860;28;20885;-58
2022/03/05 09:57:39;;;;;;;17.23;10.40;;;5.00;69.50;;;;;;5115461;28;20477;-57
2022/03/05 10:00:07;;;;;;;13.40;10.43;;;5.10;68.30;;;;;;5115728;28;20442;-58
2022/03/05 10:02:36;;;;;;;16.63;11.20;;;5.20;68.00;;;;;;5115585;28;20443;-57
2022/03/05 10:05:14;;;;;;;14.63;11.50;;;5.20;68.80;;;;;;5115555;28;20454;-57
2022/03/05 10:08:00;;;;;;;17.20;10.90;;;5.10;72.00;;;;;;5115187;28;20482;-57
2022/03/05 10:10:28;;;;;;;16.63;11.43;;;5.30;72.70;;;;;;5115604;28;20484;-58
2022/03/05 10:12:55;;;;;;;16.37;11.97;;;5.90;73.50;;;;;;5115589;28;20533;-57
2022/03/05 10:15:22;;;;;;;20.97;12.63;;;7.00;69.20;;;;;;5115189;28;20531;-57
2022/03/05 10:17:54;;;;;;;16.23;11.50;;;7.10;67.40;;;;;;5115399;28;20463;-57
2022/03/05 10:20:23;;;;;;;18.37;11.33;;;7.70;65.30;;;;;;5115400;28;20431;-58
2022/03/05 10:22:59;;;;;;;14.33;10.67;;;8.50;63.30;;;;;;5115127;28;20442;-58
2022/03/05 10:25:38;;;;;;;16.03;10.60;;;9.40;60.80;;;;;;5115299;28;20510;-57
2022/03/05 10:28:08;;;;;;;14.47;11.37;;;9.70;59.40;;;;;;5113392;28;20482;-58
2022/03/05 10:30:37;;;;;;;13.27;10.40;;;9.00;58.30;;;;;;5114835;28;20525;-58
2022/03/05 10:33:06;;;;;;;17.40;10.50;;;8.70;58.40;;;;;;5114770;28;20876;-57
2022/03/05 10:35:34;;;;;;;17.37;11.77;;;9.00;57.70;;;;;;5115051;28;20512;-58
2022/03/05 10:38:05;;;;;;;16.80;10.83;;;9.00;59.00;;;;;;5114134;28;20472;-58
2022/03/05 10:40:34;;;;;;;11.70;9.47;;;9.40;58.80;;;;;;5114602;28;20449;-58
2022/03/05 10:43:05;;;;;;;12.47;9.70;;;10.70;55.90;;;;;;5114968;28;20470;-58
2022/03/05 10:45:52;;;;;;;14.63;10.53;;;10.00;55.40;;;;;;5115688;27;20445;-58
2022/03/05 10:48:28;;;;;;;12.73;9.90;;;9.40;56.40;;;;;;5115210;28;20577;-58
2022/03/05 10:50:58;;;;;;;13.20;10.53;;;9.50;56.30;;;;;;5114835;28;20438;-58
2022/03/05 10:53:43;;;;;;;10.90;8.90;;;9.20;55.40;;;;;;5114425;28;20447;-58
2022/03/05 10:56:24;;;;;;;14.03;10.80;;;8.60;56.70;;;;;;5114854;28;20474;-58
2022/03/05 10:59:06;;;;;;;14.97;10.80;;;7.80;57.10;;;;;;5114278;28;20827;-58
2022/03/05 11:01:36;;;;;;;14.00;10.87;;;7.50;57.50;;;;;;5114278;28;20437;-58
2022/03/05 11:04:06;;;;;;;15.43;10.33;;;7.80;59.10;;;;;;5114531;28;20439;-58
2022/03/05 11:06:37;;;;;;;14.93;9.90;;;8.00;57.80;;;;;;5113997;28;20466;-57
2022/03/05 11:09:05;;;;;;;13.97;9.40;;;8.20;57.00;;;;;;5114610;28;20473;-58
2022/03/05 11:11:35;;;;;;;11.53;8.80;;;7.60;56.40;;;;;;5113972;28;20457;-57
2022/03/05 11:14:02;;;;;;;13.63;9.40;;;8.10;56.80;;;;;;5114295;28;20546;-58
2022/03/05 11:16:31;;;;;;;12.07;9.90;;;8.40;55.80;;;;;;5114226;28;20485;-58
2022/03/05 11:18:58;;;;;;;13.00;9.73;;;8.50;55.90;;;;;;5114359;28;20474;-59
2022/03/05 11:21:28;;;;;;;12.97;9.90;;;8.20;55.50;;;;;;5113904;28;20901;-58
2022/03/05 11:23:57;;;;;;;12.07;10.57;;;7.80;55.30;;;;;;5113951;28;20437;-58
2022/03/05 11:26:25;;;;;;;13.83;9.83;;;7.70;56.30;;;;;;5114149;28;20466;-58
2022/03/05 11:28:53;;;;;;;14.63;9.10;;;7.80;56.00;;;;;;5113559;28;20980;-57
2022/03/05 11:31:22;;;;;;;11.60;10.30;;;7.90;55.70;;;;;;5113798;28;20458;-58
2022/03/05 11:33:50;;;;;;;12.00;9.33;;;7.80;55.60;;;;;;5114264;28;20447;-60
2022/03/05 11:36:28;;;;;;;14.77;11.00;;;8.00;56.00;;;;;;5113780;28;20980;-58
2022/03/05 11:39:10;;;;;;;11.13;8.13;;;8.50;55.40;;;;;;5114165;28;20506;-58
2022/03/05 11:42:01;;;;;;;10.93;8.57;;;7.90;54.60;;;;;;5113783;28;20457;-57
2022/03/05 11:44:30;;;;;;;10.93;8.70;;;7.70;55.00;;;;;;5113568;28;20427;-58
2022/03/05 11:47:25;;;;;;;15.30;9.13;;;8.00;54.90;;;;;;5113305;28;20473;-58
2022/03/05 11:50:19;;;;;;;12.33;8.80;;;8.80;55.60;;;;;;5114936;28;20469;-58
2022/03/05 11:53:08;;;;;;;11.23;9.10;;;9.60;53.40;;;;;;5117651;28;20427;-58
2022/03/05 11:55:41;;;;;;;13.87;9.43;;;9.40;53.10;;;;;;5118056;28;20462;-58
2022/03/05 11:58:32;;;;;;;9.40;8.30;;;9.40;52.70;;;;;;5117410;28;20451;-58
2022/03/05 12:00:59;;;;;;;8.93;7.47;;;9.90;52.20;;;;;;5118282;28;20913;-58
2022/03/05 12:03:42;;;;;;;9.90;8.03;;;10.40;50.20;;;;;;5117864;28;20820;-58
2022/03/05 12:06:12;;;;;;;12.20;8.20;;;10.30;49.40;;;;;;5117611;28;20465;-58
2022/03/05 12:08:52;;;;;;;10.17;7.90;;;10.80;50.20;;;;;;5117698;28;20473;-60
2022/03/05 12:11:21;;;;;;;11.77;8.80;;;11.80;49.60;;;;;;5117520;28;20430;-58
2022/03/05 12:13:52;;;;;;;11.83;9.67;;;12.30;49.10;;;;;;5117233;28;20937;-58
2022/03/05 12:16:21;;;;;;;10.60;8.43;;;12.10;47.40;;;;;;5117111;28;21014;-58
2022/03/05 12:18:49;;;;;;;11.57;7.90;;;11.00;47.20;;;;;;5117484;28;20530;-58
2022/03/05 12:21:27;;;;;;;11.47;8.07;;;10.50;47.40;;;;;;5117430;28;20454;-58
2022/03/05 12:24:05;;;;;;;11.00;8.53;;;10.90;47.80;;;;;;5118042;28;20434;-58
2022/03/05 12:26:37;;;;;;;8.83;7.77;;;11.00;47.10;;;;;;5116916;28;21025;-58
2022/03/05 12:29:06;;;;;;;13.00;8.17;;;11.10;47.50;;;;;;5117232;28;20473;-58
2022/03/05 12:31:34;;;;;;;11.43;7.67;;;11.80;47.20;;;;;;5117208;28;20450;-58
2022/03/05 12:34:01;;;;;;;9.37;7.53;;;12.20;45.80;;;;;;5117917;28;20461;-58
2022/03/05 12:36:28;;;;;;;8.93;7.70;;;11.80;45.20;;;;;;5116772;28;20466;-58
2022/03/05 12:38:57;;;;;;;9.80;8.40;;;12.10;46.30;;;;;;5116756;28;20491;-58
2022/03/05 12:41:28;;;;;;;11.57;8.47;;;12.20;45.30;;;;;;5117064;28;20453;-58
2022/03/05 12:43:56;;;;;;;11.10;8.40;;;12.30;44.50;;;;;;5116766;28;20450;-58
2022/03/05 12:46:24;;;;;;;9.60;8.03;;;11.70;44.10;;;;;;5116540;28;20853;-58
2022/03/05 12:48:51;;;;;;;13.00;9.17;;;12.40;45.20;;;;;;5116902;28;20568;-58
2022/03/05 12:51:22;;;;;;;8.30;7.40;;;12.30;44.00;;;;;;5116565;28;20442;-58
2022/03/05 12:53:59;;;;;;;8.93;7.10;;;11.70;43.50;;;;;;5116508;28;20787;-58
2022/03/05 12:56:28;;;;;;;9.40;7.20;;;11.50;43.10;;;;;;5116727;28;20523;-58